sensor_id;sensor_type;location;lat;lon;timestamp;P1;durP1;ratioP1;P2;durP2;ratioP2
26502;SDS011;14177;51.520;6.764;2023-04-24T00:02:00;2.40;;;1.40;;
26502;SDS011;14177;51.520;6.764;2023-04-24T00:04:27;4.03;;;1.10;;
26502;SDS011;14177;51.520;6.764;2023-04-24T00:06:54;2.55;;;0.93;;
26502;SDS011;14177;51.520;6.764;2023-04-24T00:09:23;2.33;;;1.00;;
26502;SDS011;14177;51.520;6.764;2023-04-24T00:11:50;2.30;;;1.10;;
26502;SDS011;14177;51.520;6.764;2023-04-24T00:14:18;2.25;;;1.23;;
26502;SDS011;14177;51.520;6.764;2023-04-24T00:16:45;2.03;;;1.10;;
26502;SDS011;14177;51.520;6.764;2023-04-24T00:19:12;3.55;;;1.10;;
26502;SDS011;14177;51.520;6.764;2023-04-24T00:21:39;2.78;;;1.10;;
26502;SDS011;14177;51.520;6.764;2023-04-24T00:24:07;2.15;;;1.40;;
26502;SDS011;14177;51.520;6.764;2023-04-24T00:26:35;3.80;;;1.30;;
26502;SDS011;14177;51.520;6.764;2023-04-24T00:29:02;2.67;;;1.23;;
26502;SDS011;14177;51.520;6.764;2023-04-24T00:31:29;3.08;;;1.40;;
26502;SDS011;14177;51.520;6.764;2023-04-24T00:33:57;3.35;;;1.20;;
26502;SDS011;14177;51.520;6.764;2023-04-24T00:36:24;3.00;;;1.25;;
26502;SDS011;14177;51.520;6.764;2023-04-24T00:38:51;3.45;;;1.58;;
26502;SDS011;14177;51.520;6.764;2023-04-24T00:41:18;5.63;;;1.85;;
26502;SDS011;14177;51.520;6.764;2023-04-24T00:43:45;4.60;;;1.48;;
26502;SDS011;14177;51.520;6.764;2023-04-24T00:46:12;4.90;;;1.90;;
26502;SDS011;14177;51.520;6.764;2023-04-24T00:48:43;5.03;;;1.70;;
26502;SDS011;14177;51.520;6.764;2023-04-24T00:51:10;4.47;;;1.77;;
26502;SDS011;14177;51.520;6.764;2023-04-24T00:53:37;7.15;;;1.80;;
26502;SDS011;14177;51.520;6.764;2023-04-24T00:56:04;5.72;;;2.08;;
26502;SDS011;14177;51.520;6.764;2023-04-24T00:58:31;6.30;;;2.70;;
26502;SDS011;14177;51.520;6.764;2023-04-24T01:00:58;3.75;;;1.83;;
26502;SDS011;14177;51.520;6.764;2023-04-24T01:03:29;6.25;;;2.53;;
26502;SDS011;14177;51.520;6.764;2023-04-24T01:05:58;4.53;;;2.30;;
26502;SDS011;14177;51.520;6.764;2023-04-24T01:08:25;3.97;;;2.35;;
26502;SDS011;14177;51.520;6.764;2023-04-24T01:10:55;4.80;;;2.60;;
26502;SDS011;14177;51.520;6.764;2023-04-24T01:13:24;5.07;;;2.50;;
26502;SDS011;14177;51.520;6.764;2023-04-24T01:15:51;3.28;;;2.47;;
26502;SDS011;14177;51.520;6.764;2023-04-24T01:18:18;5.95;;;2.63;;
26502;SDS011;14177;51.520;6.764;2023-04-24T01:20:49;7.47;;;3.33;;
26502;SDS011;14177;51.520;6.764;2023-04-24T01:23:19;6.60;;;3.20;;
26502;SDS011;14177;51.520;6.764;2023-04-24T01:25:46;6.95;;;3.55;;
26502;SDS011;14177;51.520;6.764;2023-04-24T01:28:17;7.38;;;4.00;;
26502;SDS011;14177;51.520;6.764;2023-04-24T01:30:44;9.93;;;3.38;;
26502;SDS011;14177;51.520;6.764;2023-04-24T01:33:11;6.68;;;4.03;;
26502;SDS011;14177;51.520;6.764;2023-04-24T01:35:38;6.65;;;3.95;;
26502;SDS011;14177;51.520;6.764;2023-04-24T01:38:06;5.78;;;3.80;;
26502;SDS011;14177;51.520;6.764;2023-04-24T01:40:34;7.97;;;3.85;;
26502;SDS011;14177;51.520;6.764;2023-04-24T01:43:01;7.57;;;4.10;;
26502;SDS011;14177;51.520;6.764;2023-04-24T01:45:29;12.00;;;4.18;;
26502;SDS011;14177;51.520;6.764;2023-04-24T01:47:56;7.07;;;4.20;;
26502;SDS011;14177;51.520;6.764;2023-04-24T01:50:23;10.85;;;4.75;;
26502;SDS011;14177;51.520;6.764;2023-04-24T01:52:50;14.63;;;5.60;;
26502;SDS011;14177;51.520;6.764;2023-04-24T01:55:17;7.03;;;4.45;;
26502;SDS011;14177;51.520;6.764;2023-04-24T01:57:44;6.53;;;4.18;;
26502;SDS011;14177;51.520;6.764;2023-04-24T02:00:11;8.50;;;4.15;;
26502;SDS011;14177;51.520;6.764;2023-04-24T02:02:39;10.07;;;4.60;;
26502;SDS011;14177;51.520;6.764;2023-04-24T02:05:08;10.98;;;4.28;;
26502;SDS011;14177;51.520;6.764;2023-04-24T02:07:35;9.10;;;4.32;;
26502;SDS011;14177;51.520;6.764;2023-04-24T02:10:03;9.73;;;4.60;;
26502;SDS011;14177;51.520;6.764;2023-04-24T02:12:30;12.10;;;5.10;;
26502;SDS011;14177;51.520;6.764;2023-04-24T02:14:58;8.75;;;4.75;;
26502;SDS011;14177;51.520;6.764;2023-04-24T02:17:24;9.50;;;5.05;;
26502;SDS011;14177;51.520;6.764;2023-04-24T02:19:52;8.88;;;4.75;;
26502;SDS011;14177;51.520;6.764;2023-04-24T02:22:19;9.60;;;4.90;;
26502;SDS011;14177;51.520;6.764;2023-04-24T02:24:46;9.93;;;5.40;;
26502;SDS011;14177;51.520;6.764;2023-04-24T02:27:14;7.65;;;4.80;;
26502;SDS011;14177;51.520;6.764;2023-04-24T02:29:41;10.10;;;5.55;;
26502;SDS011;14177;51.520;6.764;2023-04-24T02:32:08;10.15;;;5.78;;
26502;SDS011;14177;51.520;6.764;2023-04-24T02:34:39;9.82;;;5.90;;
26502;SDS011;14177;51.520;6.764;2023-04-24T02:37:05;12.02;;;6.03;;
26502;SDS011;14177;51.520;6.764;2023-04-24T02:39:33;15.57;;;7.13;;
26502;SDS011;14177;51.520;6.764;2023-04-24T02:42:00;11.13;;;6.30;;
26502;SDS011;14177;51.520;6.764;2023-04-24T02:44:28;14.00;;;6.82;;
26502;SDS011;14177;51.520;6.764;2023-04-24T02:46:55;14.25;;;6.68;;
26502;SDS011;14177;51.520;6.764;2023-04-24T02:49:22;11.23;;;5.85;;
26502;SDS011;14177;51.520;6.764;2023-04-24T02:51:49;11.38;;;6.03;;
26502;SDS011;14177;51.520;6.764;2023-04-24T02:54:16;15.15;;;6.85;;
26502;SDS011;14177;51.520;6.764;2023-04-24T02:56:42;16.13;;;7.97;;
26502;SDS011;14177;51.520;6.764;2023-04-24T02:59:09;15.00;;;6.57;;
26502;SDS011;14177;51.520;6.764;2023-04-24T03:01:36;11.38;;;6.13;;
26502;SDS011;14177;51.520;6.764;2023-04-24T03:04:03;10.77;;;6.85;;
26502;SDS011;14177;51.520;6.764;2023-04-24T03:06:32;13.25;;;7.88;;
26502;SDS011;14177;51.520;6.764;2023-04-24T03:09:01;12.32;;;6.78;;
26502;SDS011;14177;51.520;6.764;2023-04-24T03:11:30;17.23;;;8.10;;
26502;SDS011;14177;51.520;6.764;2023-04-24T03:13:59;19.10;;;8.50;;
26502;SDS011;14177;51.520;6.764;2023-04-24T03:16:26;19.15;;;8.82;;
26502;SDS011;14177;51.520;6.764;2023-04-24T03:18:54;16.75;;;7.30;;
26502;SDS011;14177;51.520;6.764;2023-04-24T03:21:23;13.88;;;7.80;;
26502;SDS011;14177;51.520;6.764;2023-04-24T03:23:50;15.25;;;8.02;;
26502;SDS011;14177;51.520;6.764;2023-04-24T03:26:17;16.98;;;8.52;;
26502;SDS011;14177;51.520;6.764;2023-04-24T03:28:57;16.08;;;7.72;;
26502;SDS011;14177;51.520;6.764;2023-04-24T03:31:24;14.48;;;7.78;;
26502;SDS011;14177;51.520;6.764;2023-04-24T03:33:51;24.80;;;9.48;;
26502;SDS011;14177;51.520;6.764;2023-04-24T03:36:18;17.67;;;9.07;;
26502;SDS011;14177;51.520;6.764;2023-04-24T03:38:45;17.73;;;7.82;;
26502;SDS011;14177;51.520;6.764;2023-04-24T03:41:20;15.63;;;8.68;;
26502;SDS011;14177;51.520;6.764;2023-04-24T03:43:53;13.50;;;7.97;;
26502;SDS011;14177;51.520;6.764;2023-04-24T03:46:19;10.35;;;6.90;;
26502;SDS011;14177;51.520;6.764;2023-04-24T03:48:52;14.23;;;7.47;;
26502;SDS011;14177;51.520;6.764;2023-04-24T03:51:23;19.20;;;8.43;;
26502;SDS011;14177;51.520;6.764;2023-04-24T03:53:54;14.85;;;8.20;;
26502;SDS011;14177;51.520;6.764;2023-04-24T03:56:23;12.02;;;7.30;;
26502;SDS011;14177;51.520;6.764;2023-04-24T03:58:51;12.55;;;7.18;;
26502;SDS011;14177;51.520;6.764;2023-04-24T04:01:18;15.93;;;8.57;;
26502;SDS011;14177;51.520;6.764;2023-04-24T04:03:53;16.48;;;7.15;;
26502;SDS011;14177;51.520;6.764;2023-04-24T04:06:23;15.98;;;8.10;;
26502;SDS011;14177;51.520;6.764;2023-04-24T04:08:52;15.13;;;7.35;;
26502;SDS011;14177;51.520;6.764;2023-04-24T04:11:19;16.70;;;7.78;;
26502;SDS011;14177;51.520;6.764;2023-04-24T04:13:49;12.88;;;7.55;;
26502;SDS011;14177;51.520;6.764;2023-04-24T04:16:19;19.02;;;8.27;;
26502;SDS011;14177;51.520;6.764;2023-04-24T04:18:48;20.90;;;8.73;;
26502;SDS011;14177;51.520;6.764;2023-04-24T04:21:15;16.50;;;8.30;;
26502;SDS011;14177;51.520;6.764;2023-04-24T04:23:43;16.48;;;8.77;;
26502;SDS011;14177;51.520;6.764;2023-04-24T04:26:15;13.27;;;7.78;;
26502;SDS011;14177;51.520;6.764;2023-04-24T04:29:14;15.18;;;8.02;;
26502;SDS011;14177;51.520;6.764;2023-04-24T04:31:45;11.50;;;7.45;;
26502;SDS011;14177;51.520;6.764;2023-04-24T04:34:12;15.32;;;7.97;;
26502;SDS011;14177;51.520;6.764;2023-04-24T04:36:40;17.23;;;8.35;;
26502;SDS011;14177;51.520;6.764;2023-04-24T04:39:27;12.65;;;7.38;;
26502;SDS011;14177;51.520;6.764;2023-04-24T04:42:00;14.35;;;7.53;;
26502;SDS011;14177;51.520;6.764;2023-04-24T04:44:38;13.73;;;7.03;;
26502;SDS011;14177;51.520;6.764;2023-04-24T04:47:08;12.82;;;8.30;;
26502;SDS011;14177;51.520;6.764;2023-04-24T04:49:36;16.10;;;7.55;;
26502;SDS011;14177;51.520;6.764;2023-04-24T04:52:10;13.93;;;7.28;;
26502;SDS011;14177;51.520;6.764;2023-04-24T04:54:37;12.75;;;6.82;;
26502;SDS011;14177;51.520;6.764;2023-04-24T04:57:06;11.48;;;7.53;;
26502;SDS011;14177;51.520;6.764;2023-04-24T04:59:34;13.15;;;6.72;;
26502;SDS011;14177;51.520;6.764;2023-04-24T05:02:05;14.15;;;7.30;;
26502;SDS011;14177;51.520;6.764;2023-04-24T05:04:32;14.85;;;8.38;;
26502;SDS011;14177;51.520;6.764;2023-04-24T05:07:00;11.35;;;6.60;;
26502;SDS011;14177;51.520;6.764;2023-04-24T05:09:29;8.25;;;5.05;;
26502;SDS011;14177;51.520;6.764;2023-04-24T05:12:01;12.57;;;6.95;;
26502;SDS011;14177;51.520;6.764;2023-04-24T05:14:32;10.70;;;6.05;;
26502;SDS011;14177;51.520;6.764;2023-04-24T05:16:59;9.75;;;4.95;;
26502;SDS011;14177;51.520;6.764;2023-04-24T05:19:27;8.88;;;5.32;;
26502;SDS011;14177;51.520;6.764;2023-04-24T05:21:54;12.05;;;5.55;;
26502;SDS011;14177;51.520;6.764;2023-04-24T05:24:21;13.82;;;6.10;;
26502;SDS011;14177;51.520;6.764;2023-04-24T05:27:02;10.00;;;5.85;;
26502;SDS011;14177;51.520;6.764;2023-04-24T05:29:38;12.40;;;5.32;;
26502;SDS011;14177;51.520;6.764;2023-04-24T05:32:07;10.20;;;5.20;;
26502;SDS011;14177;51.520;6.764;2023-04-24T05:34:36;10.75;;;5.05;;
26502;SDS011;14177;51.520;6.764;2023-04-24T05:37:03;7.82;;;5.38;;
26502;SDS011;14177;51.520;6.764;2023-04-24T05:39:34;8.93;;;5.63;;
26502;SDS011;14177;51.520;6.764;2023-04-24T05:42:02;9.32;;;6.63;;
26502;SDS011;14177;51.520;6.764;2023-04-24T05:44:30;11.93;;;5.35;;
26502;SDS011;14177;51.520;6.764;2023-04-24T05:46:58;17.77;;;6.90;;
26502;SDS011;14177;51.520;6.764;2023-04-24T05:49:25;12.35;;;7.20;;
26502;SDS011;14177;51.520;6.764;2023-04-24T05:51:53;12.35;;;6.90;;
26502;SDS011;14177;51.520;6.764;2023-04-24T05:54:20;11.23;;;6.43;;
26502;SDS011;14177;51.520;6.764;2023-04-24T05:56:48;9.82;;;5.80;;
26502;SDS011;14177;51.520;6.764;2023-04-24T05:59:25;13.35;;;6.45;;
26502;SDS011;14177;51.520;6.764;2023-04-24T06:01:52;8.88;;;6.00;;
26502;SDS011;14177;51.520;6.764;2023-04-24T06:04:20;15.85;;;7.03;;
26502;SDS011;14177;51.520;6.764;2023-04-24T06:06:49;17.30;;;7.30;;
26502;SDS011;14177;51.520;6.764;2023-04-24T06:09:17;11.93;;;6.88;;
26502;SDS011;14177;51.520;6.764;2023-04-24T06:11:44;10.88;;;6.50;;
26502;SDS011;14177;51.520;6.764;2023-04-24T06:14:12;11.25;;;6.65;;
26502;SDS011;14177;51.520;6.764;2023-04-24T06:17:02;12.32;;;6.32;;
26502;SDS011;14177;51.520;6.764;2023-04-24T06:19:34;10.57;;;6.85;;
26502;SDS011;14177;51.520;6.764;2023-04-24T06:22:01;13.55;;;6.15;;
26502;SDS011;14177;51.520;6.764;2023-04-24T06:24:29;11.52;;;6.05;;
26502;SDS011;14177;51.520;6.764;2023-04-24T06:26:57;10.75;;;5.78;;
26502;SDS011;14177;51.520;6.764;2023-04-24T06:29:26;8.77;;;5.32;;
26502;SDS011;14177;51.520;6.764;2023-04-24T06:31:53;10.82;;;5.80;;
26502;SDS011;14177;51.520;6.764;2023-04-24T06:34:20;14.98;;;6.50;;
26502;SDS011;14177;51.520;6.764;2023-04-24T06:36:47;8.27;;;5.30;;
26502;SDS011;14177;51.520;6.764;2023-04-24T06:39:14;8.38;;;5.43;;
26502;SDS011;14177;51.520;6.764;2023-04-24T06:41:41;10.23;;;5.57;;
26502;SDS011;14177;51.520;6.764;2023-04-24T06:44:17;9.05;;;5.32;;
26502;SDS011;14177;51.520;6.764;2023-04-24T06:46:44;9.00;;;5.38;;
26502;SDS011;14177;51.520;6.764;2023-04-24T06:49:11;7.45;;;5.13;;
26502;SDS011;14177;51.520;6.764;2023-04-24T06:51:38;8.27;;;5.10;;
26502;SDS011;14177;51.520;6.764;2023-04-24T06:54:05;7.10;;;4.65;;
26502;SDS011;14177;51.520;6.764;2023-04-24T06:56:32;7.55;;;5.03;;
26502;SDS011;14177;51.520;6.764;2023-04-24T06:59:00;7.75;;;4.38;;
26502;SDS011;14177;51.520;6.764;2023-04-24T07:01:27;6.15;;;4.10;;
26502;SDS011;14177;51.520;6.764;2023-04-24T07:03:54;5.20;;;3.47;;
26502;SDS011;14177;51.520;6.764;2023-04-24T07:06:21;5.18;;;3.20;;
26502;SDS011;14177;51.520;6.764;2023-04-24T07:08:50;5.90;;;4.00;;
26502;SDS011;14177;51.520;6.764;2023-04-24T07:11:17;7.22;;;3.80;;
26502;SDS011;14177;51.520;6.764;2023-04-24T07:13:44;11.93;;;3.97;;
26502;SDS011;14177;51.520;6.764;2023-04-24T07:16:11;4.47;;;3.00;;
26502;SDS011;14177;51.520;6.764;2023-04-24T07:18:37;7.93;;;3.80;;
26502;SDS011;14177;51.520;6.764;2023-04-24T07:21:06;9.60;;;5.05;;
26502;SDS011;14177;51.520;6.764;2023-04-24T07:23:45;9.25;;;4.70;;
26502;SDS011;14177;51.520;6.764;2023-04-24T07:26:18;7.50;;;3.70;;
26502;SDS011;14177;51.520;6.764;2023-04-24T07:28:53;9.20;;;3.58;;
26502;SDS011;14177;51.520;6.764;2023-04-24T07:31:20;4.20;;;2.53;;
26502;SDS011;14177;51.520;6.764;2023-04-24T07:33:48;9.73;;;2.70;;
26502;SDS011;14177;51.520;6.764;2023-04-24T07:36:25;6.13;;;2.80;;
26502;SDS011;14177;51.520;6.764;2023-04-24T07:39:00;11.18;;;3.83;;
26502;SDS011;14177;51.520;6.764;2023-04-24T07:41:37;5.32;;;2.85;;
26502;SDS011;14177;51.520;6.764;2023-04-24T07:44:08;4.90;;;2.45;;
26502;SDS011;14177;51.520;6.764;2023-04-24T07:46:35;11.45;;;4.40;;
26502;SDS011;14177;51.520;6.764;2023-04-24T07:49:03;4.88;;;2.00;;
26502;SDS011;14177;51.520;6.764;2023-04-24T07:51:40;5.28;;;2.50;;
26502;SDS011;14177;51.520;6.764;2023-04-24T07:54:11;7.00;;;4.00;;
26502;SDS011;14177;51.520;6.764;2023-04-24T07:56:47;10.90;;;4.78;;
26502;SDS011;14177;51.520;6.764;2023-04-24T07:59:20;10.35;;;3.63;;
26502;SDS011;14177;51.520;6.764;2023-04-24T08:01:49;9.32;;;4.63;;
26502;SDS011;14177;51.520;6.764;2023-04-24T08:06:56;8.10;;;2.13;;
26502;SDS011;14177;51.520;6.764;2023-04-24T08:09:23;2.75;;;1.63;;
26502;SDS011;14177;51.520;6.764;2023-04-24T08:11:52;3.40;;;1.73;;
26502;SDS011;14177;51.520;6.764;2023-04-24T08:14:20;2.70;;;1.70;;
26502;SDS011;14177;51.520;6.764;2023-04-24T08:16:46;5.30;;;2.30;;
26502;SDS011;14177;51.520;6.764;2023-04-24T08:19:13;2.67;;;1.60;;
26502;SDS011;14177;51.520;6.764;2023-04-24T08:21:40;2.20;;;1.48;;
26502;SDS011;14177;51.520;6.764;2023-04-24T08:24:09;1.60;;;1.17;;
26502;SDS011;14177;51.520;6.764;2023-04-24T08:26:36;3.75;;;1.17;;
26502;SDS011;14177;51.520;6.764;2023-04-24T08:29:03;2.00;;;1.23;;
26502;SDS011;14177;51.520;6.764;2023-04-24T08:31:33;3.20;;;1.35;;
26502;SDS011;14177;51.520;6.764;2023-04-24T08:34:02;1.10;;;1.00;;
26502;SDS011;14177;51.520;6.764;2023-04-24T08:36:32;1.65;;;0.82;;
26502;SDS011;14177;51.520;6.764;2023-04-24T08:39:16;0.90;;;0.80;;
26502;SDS011;14177;51.520;6.764;2023-04-24T08:42:11;1.58;;;1.10;;
26502;SDS011;14177;51.520;6.764;2023-04-24T08:47:16;1.67;;;0.90;;
26502;SDS011;14177;51.520;6.764;2023-04-24T08:49:49;1.10;;;0.90;;
26502;SDS011;14177;51.520;6.764;2023-04-24T08:52:24;1.30;;;0.70;;
26502;SDS011;14177;51.520;6.764;2023-04-24T08:56:00;1.00;;;0.73;;
26502;SDS011;14177;51.520;6.764;2023-04-24T08:58:29;1.35;;;0.70;;
26502;SDS011;14177;51.520;6.764;2023-04-24T09:00:57;2.65;;;0.90;;
26502;SDS011;14177;51.520;6.764;2023-04-24T09:03:26;1.30;;;0.85;;
26502;SDS011;14177;51.520;6.764;2023-04-24T09:05:55;1.33;;;0.95;;
26502;SDS011;14177;51.520;6.764;2023-04-24T09:08:25;1.48;;;0.85;;
26502;SDS011;14177;51.520;6.764;2023-04-24T09:10:54;4.15;;;1.52;;
26502;SDS011;14177;51.520;6.764;2023-04-24T09:13:21;3.38;;;2.28;;
26502;SDS011;14177;51.520;6.764;2023-04-24T09:15:49;5.25;;;3.00;;
26502;SDS011;14177;51.520;6.764;2023-04-24T09:18:18;5.55;;;3.28;;
26502;SDS011;14177;51.520;6.764;2023-04-24T09:21:02;8.70;;;3.75;;
26502;SDS011;14177;51.520;6.764;2023-04-24T09:23:47;5.30;;;3.33;;
26502;SDS011;14177;51.520;6.764;2023-04-24T09:26:29;5.53;;;3.35;;
26502;SDS011;14177;51.520;6.764;2023-04-24T09:29:03;5.38;;;3.30;;
26502;SDS011;14177;51.520;6.764;2023-04-24T09:31:32;9.68;;;4.30;;
26502;SDS011;14177;51.520;6.764;2023-04-24T09:37:02;7.72;;;3.80;;
26502;SDS011;14177;51.520;6.764;2023-04-24T09:39:36;8.90;;;3.30;;
26502;SDS011;14177;51.520;6.764;2023-04-24T09:42:08;6.32;;;3.28;;
26502;SDS011;14177;51.520;6.764;2023-04-24T09:44:41;7.95;;;4.15;;
26502;SDS011;14177;51.520;6.764;2023-04-24T09:47:10;7.68;;;3.22;;
26502;SDS011;14177;51.520;6.764;2023-04-24T09:49:42;9.25;;;3.83;;
26502;SDS011;14177;51.520;6.764;2023-04-24T09:52:19;5.15;;;3.38;;
26502;SDS011;14177;51.520;6.764;2023-04-24T09:54:54;6.75;;;3.95;;
26502;SDS011;14177;51.520;6.764;2023-04-24T10:01:39;6.95;;;4.05;;
26502;SDS011;14177;51.520;6.764;2023-04-24T10:04:39;5.82;;;3.90;;
26502;SDS011;14177;51.520;6.764;2023-04-24T10:08:07;5.03;;;3.47;;
26502;SDS011;14177;51.520;6.764;2023-04-24T10:11:20;9.18;;;3.60;;
26502;SDS011;14177;51.520;6.764;2023-04-24T10:13:50;8.27;;;3.67;;
26502;SDS011;14177;51.520;6.764;2023-04-24T10:16:26;7.80;;;3.28;;
26502;SDS011;14177;51.520;6.764;2023-04-24T10:18:55;5.20;;;2.90;;
26502;SDS011;14177;51.520;6.764;2023-04-24T10:21:32;8.57;;;3.55;;
26502;SDS011;14177;51.520;6.764;2023-04-24T10:24:04;6.78;;;3.28;;
26502;SDS011;14177;51.520;6.764;2023-04-24T10:26:36;9.90;;;3.38;;
26502;SDS011;14177;51.520;6.764;2023-04-24T10:29:11;12.93;;;3.58;;
26502;SDS011;14177;51.520;6.764;2023-04-24T10:31:51;10.05;;;3.47;;
26502;SDS011;14177;51.520;6.764;2023-04-24T10:34:20;11.35;;;3.58;;
26502;SDS011;14177;51.520;6.764;2023-04-24T10:36:53;12.73;;;3.47;;
26502;SDS011;14177;51.520;6.764;2023-04-24T10:39:27;10.60;;;3.63;;
26502;SDS011;14177;51.520;6.764;2023-04-24T10:42:01;10.77;;;3.42;;
26502;SDS011;14177;51.520;6.764;2023-04-24T10:44:42;10.90;;;4.00;;
26502;SDS011;14177;51.520;6.764;2023-04-24T10:47:41;12.65;;;3.90;;
26502;SDS011;14177;51.520;6.764;2023-04-24T10:50:10;10.25;;;3.50;;
26502;SDS011;14177;51.520;6.764;2023-04-24T10:52:43;11.20;;;4.15;;
26502;SDS011;14177;51.520;6.764;2023-04-24T10:55:15;9.40;;;3.35;;
26502;SDS011;14177;51.520;6.764;2023-04-24T10:58:01;13.68;;;3.55;;
26502;SDS011;14177;51.520;6.764;2023-04-24T11:00:31;7.13;;;2.83;;
26502;SDS011;14177;51.520;6.764;2023-04-24T11:02:58;12.82;;;3.63;;
26502;SDS011;14177;51.520;6.764;2023-04-24T11:05:48;9.85;;;4.05;;
26502;SDS011;14177;51.520;6.764;2023-04-24T11:11:13;8.02;;;3.17;;
26502;SDS011;14177;51.520;6.764;2023-04-24T11:19:09;8.02;;;2.60;;
26502;SDS011;14177;51.520;6.764;2023-04-24T11:24:48;11.43;;;3.08;;
26502;SDS011;14177;51.520;6.764;2023-04-24T11:27:28;8.75;;;2.55;;
26502;SDS011;14177;51.520;6.764;2023-04-24T11:30:06;11.02;;;3.13;;
26502;SDS011;14177;51.520;6.764;2023-04-24T11:35:17;12.60;;;3.28;;
26502;SDS011;14177;51.520;6.764;2023-04-24T11:37:54;7.10;;;2.63;;
26502;SDS011;14177;51.520;6.764;2023-04-24T11:40:24;6.65;;;2.80;;
26502;SDS011;14177;51.520;6.764;2023-04-24T11:42:54;8.38;;;2.60;;
26502;SDS011;14177;51.520;6.764;2023-04-24T11:45:23;5.47;;;2.22;;
26502;SDS011;14177;51.520;6.764;2023-04-24T11:47:53;8.32;;;2.97;;
26502;SDS011;14177;51.520;6.764;2023-04-24T11:50:24;4.93;;;2.20;;
26502;SDS011;14177;51.520;6.764;2023-04-24T11:52:54;9.50;;;2.38;;
26502;SDS011;14177;51.520;6.764;2023-04-24T11:57:54;3.85;;;2.10;;
26502;SDS011;14177;51.520;6.764;2023-04-24T12:00:28;5.85;;;2.00;;
26502;SDS011;14177;51.520;6.764;2023-04-24T12:08:01;6.68;;;1.73;;
26502;SDS011;14177;51.520;6.764;2023-04-24T12:10:29;5.05;;;2.10;;
26502;SDS011;14177;51.520;6.764;2023-04-24T12:12:59;6.93;;;2.38;;
26502;SDS011;14177;51.520;6.764;2023-04-24T12:15:26;4.47;;;2.10;;
26502;SDS011;14177;51.520;6.764;2023-04-24T12:17:55;4.88;;;2.45;;
26502;SDS011;14177;51.520;6.764;2023-04-24T12:20:24;5.85;;;2.03;;
26502;SDS011;14177;51.520;6.764;2023-04-24T12:22:57;3.38;;;2.20;;
26502;SDS011;14177;51.520;6.764;2023-04-24T12:25:27;5.32;;;2.35;;
26502;SDS011;14177;51.520;6.764;2023-04-24T12:30:32;4.60;;;2.22;;
26502;SDS011;14177;51.520;6.764;2023-04-24T12:33:02;5.68;;;1.65;;
26502;SDS011;14177;51.520;6.764;2023-04-24T12:35:30;2.33;;;1.20;;
26502;SDS011;14177;51.520;6.764;2023-04-24T12:38:07;2.08;;;1.30;;
26502;SDS011;14177;51.520;6.764;2023-04-24T12:40:42;1.20;;;1.00;;
26502;SDS011;14177;51.520;6.764;2023-04-24T12:43:17;4.28;;;1.08;;
26502;SDS011;14177;51.520;6.764;2023-04-24T12:45:47;2.03;;;1.02;;
26502;SDS011;14177;51.520;6.764;2023-04-24T12:48:15;4.35;;;1.30;;
26502;SDS011;14177;51.520;6.764;2023-04-24T12:50:42;5.00;;;1.50;;
26502;SDS011;14177;51.520;6.764;2023-04-24T12:53:12;3.42;;;1.73;;
26502;SDS011;14177;51.520;6.764;2023-04-24T12:55:40;3.60;;;2.00;;
26502;SDS011;14177;51.520;6.764;2023-04-24T12:58:07;4.57;;;2.05;;
26502;SDS011;14177;51.520;6.764;2023-04-24T13:00:37;3.92;;;1.73;;
26502;SDS011;14177;51.520;6.764;2023-04-24T13:03:05;2.22;;;1.60;;
26502;SDS011;14177;51.520;6.764;2023-04-24T13:05:32;6.13;;;1.95;;
26502;SDS011;14177;51.520;6.764;2023-04-24T13:07:59;3.50;;;1.40;;
26502;SDS011;14177;51.520;6.764;2023-04-24T13:10:26;4.55;;;1.50;;
26502;SDS011;14177;51.520;6.764;2023-04-24T13:13:00;4.95;;;1.35;;
26502;SDS011;14177;51.520;6.764;2023-04-24T13:15:27;4.85;;;1.40;;
26502;SDS011;14177;51.520;6.764;2023-04-24T13:17:54;4.65;;;1.20;;
26502;SDS011;14177;51.520;6.764;2023-04-24T13:20:22;2.67;;;1.20;;
26502;SDS011;14177;51.520;6.764;2023-04-24T13:22:49;2.83;;;1.20;;
26502;SDS011;14177;51.520;6.764;2023-04-24T13:25:16;4.25;;;1.60;;
26502;SDS011;14177;51.520;6.764;2023-04-24T13:27:44;4.25;;;1.33;;
26502;SDS011;14177;51.520;6.764;2023-04-24T13:30:11;3.40;;;1.40;;
26502;SDS011;14177;51.520;6.764;2023-04-24T13:32:39;3.25;;;1.55;;
26502;SDS011;14177;51.520;6.764;2023-04-24T13:35:06;6.15;;;1.60;;
26502;SDS011;14177;51.520;6.764;2023-04-24T13:37:34;3.42;;;1.75;;
26502;SDS011;14177;51.520;6.764;2023-04-24T13:40:01;5.40;;;1.80;;
26502;SDS011;14177;51.520;6.764;2023-04-24T13:42:28;2.08;;;1.30;;
26502;SDS011;14177;51.520;6.764;2023-04-24T13:44:55;3.55;;;1.27;;
26502;SDS011;14177;51.520;6.764;2023-04-24T13:47:21;3.63;;;1.17;;
26502;SDS011;14177;51.520;6.764;2023-04-24T13:49:48;3.35;;;1.20;;
26502;SDS011;14177;51.520;6.764;2023-04-24T13:52:16;7.22;;;1.30;;
26502;SDS011;14177;51.520;6.764;2023-04-24T13:54:43;3.22;;;1.67;;
26502;SDS011;14177;51.520;6.764;2023-04-24T13:57:10;4.72;;;1.30;;
26502;SDS011;14177;51.520;6.764;2023-04-24T13:59:37;3.80;;;1.10;;
26502;SDS011;14177;51.520;6.764;2023-04-24T14:02:04;3.50;;;1.40;;
26502;SDS011;14177;51.520;6.764;2023-04-24T14:04:31;4.88;;;1.00;;
26502;SDS011;14177;51.520;6.764;2023-04-24T14:06:59;3.85;;;1.40;;
26502;SDS011;14177;51.520;6.764;2023-04-24T14:09:26;2.22;;;1.15;;
26502;SDS011;14177;51.520;6.764;2023-04-24T14:11:53;4.75;;;1.30;;
26502;SDS011;14177;51.520;6.764;2023-04-24T14:14:20;4.38;;;1.55;;
26502;SDS011;14177;51.520;6.764;2023-04-24T14:16:47;5.00;;;1.60;;
26502;SDS011;14177;51.520;6.764;2023-04-24T14:19:14;5.63;;;2.78;;
26502;SDS011;14177;51.520;6.764;2023-04-24T14:21:41;3.33;;;1.48;;
26502;SDS011;14177;51.520;6.764;2023-04-24T14:24:08;3.35;;;1.52;;
26502;SDS011;14177;51.520;6.764;2023-04-24T14:26:35;3.40;;;1.50;;
26502;SDS011;14177;51.520;6.764;2023-04-24T14:29:02;3.83;;;1.55;;
26502;SDS011;14177;51.520;6.764;2023-04-24T14:31:40;5.00;;;1.48;;
26502;SDS011;14177;51.520;6.764;2023-04-24T14:34:08;3.88;;;1.40;;
26502;SDS011;14177;51.520;6.764;2023-04-24T14:36:35;2.45;;;1.30;;
26502;SDS011;14177;51.520;6.764;2023-04-24T14:39:02;2.97;;;1.40;;
26502;SDS011;14177;51.520;6.764;2023-04-24T14:41:33;1.33;;;1.17;;
26502;SDS011;14177;51.520;6.764;2023-04-24T14:44:02;2.80;;;1.17;;
26502;SDS011;14177;51.520;6.764;2023-04-24T14:46:30;4.50;;;2.03;;
26502;SDS011;14177;51.520;6.764;2023-04-24T14:48:57;8.38;;;2.03;;
26502;SDS011;14177;51.520;6.764;2023-04-24T14:51:24;2.95;;;1.25;;
26502;SDS011;14177;51.520;6.764;2023-04-24T14:53:51;2.47;;;1.15;;
26502;SDS011;14177;51.520;6.764;2023-04-24T14:56:19;5.22;;;1.42;;
26502;SDS011;14177;51.520;6.764;2023-04-24T14:58:46;2.97;;;1.15;;
26502;SDS011;14177;51.520;6.764;2023-04-24T15:01:13;3.05;;;0.90;;
26502;SDS011;14177;51.520;6.764;2023-04-24T15:04:27;2.67;;;1.05;;
26502;SDS011;14177;51.520;6.764;2023-04-24T15:06:57;5.47;;;1.30;;
26502;SDS011;14177;51.520;6.764;2023-04-24T15:09:24;4.95;;;1.33;;
26502;SDS011;14177;51.520;6.764;2023-04-24T15:11:53;3.15;;;0.98;;
26502;SDS011;14177;51.520;6.764;2023-04-24T15:14:20;2.50;;;1.10;;
26502;SDS011;14177;51.520;6.764;2023-04-24T15:16:47;1.70;;;1.00;;
26502;SDS011;14177;51.520;6.764;2023-04-24T15:19:14;3.00;;;0.75;;
26502;SDS011;14177;51.520;6.764;2023-04-24T15:21:41;1.48;;;0.75;;
26502;SDS011;14177;51.520;6.764;2023-04-24T15:24:10;4.57;;;1.02;;
26502;SDS011;14177;51.520;6.764;2023-04-24T15:26:37;1.30;;;0.85;;
26502;SDS011;14177;51.520;6.764;2023-04-24T15:29:04;1.77;;;0.68;;
26502;SDS011;14177;51.520;6.764;2023-04-24T15:31:32;2.20;;;1.30;;
26502;SDS011;14177;51.520;6.764;2023-04-24T15:33:59;1.55;;;1.00;;
26502;SDS011;14177;51.520;6.764;2023-04-24T15:36:35;2.50;;;0.90;;
26502;SDS011;14177;51.520;6.764;2023-04-24T15:39:02;2.45;;;1.25;;